SWA4526 TIST-KMCO
Flight info
| Callsign | SWA4526 |
|---|---|
| Flight time | N/A |
| Altitude | 38000 |
| Route | PALCO7 PALCO RTE6 SJU DCT ACONY Y280 SAPPO Y399 ZQA DCT OCTAL MUNGI1 |
| Aircraft | B738/M-SADE2E3GIJ4RWZ/LB1D1 |
Departure
| Time | 2026-05-08 21:56 |
|---|---|
| Airport | Cyril E. King Airport (TIST) |
Arrival
| Time | N/A |
|---|---|
| Airport | Orlando International Airport (KMCO) |
| Time | Latitude | Longitude | Altitude | Speed | Heading |
|---|---|---|---|---|---|
| 2026-05-08 21:25 | 18.33571 | -64.97161 | 31 ft | 0 kts | 192° |
| 2026-05-08 21:44 | 18.33573 | -64.97161 | 31 ft | 1 kts | 192° |
| 2026-05-08 21:45 | 18.33594 | -64.97156 | 31 ft | 2 kts | 192° |
| 2026-05-08 21:45 | 18.33616 | -64.97151 | 31 ft | 4 kts | 192° |
| 2026-05-08 21:45 | 18.33641 | -64.97143 | 31 ft | 2 kts | 216° |
| 2026-05-08 21:45 | 18.33651 | -64.97131 | 31 ft | 2 kts | 240° |
| 2026-05-08 21:46 | 18.33657 | -64.97116 | 31 ft | 2 kts | 262° |
| 2026-05-08 21:46 | 18.33657 | -64.97109 | 31 ft | 0 kts | 272° |
| 2026-05-08 21:49 | 18.33657 | -64.97114 | 31 ft | 2 kts | 271° |
| 2026-05-08 21:50 | 18.33655 | -64.97159 | 31 ft | 8 kts | 267° |
| 2026-05-08 21:50 | 18.33653 | -64.97219 | 30 ft | 8 kts | 268° |
| 2026-05-08 21:50 | 18.33651 | -64.97278 | 29 ft | 7 kts | 268° |
| 2026-05-08 21:50 | 18.33645 | -64.97335 | 28 ft | 7 kts | 256° |
| 2026-05-08 21:51 | 18.33632 | -64.97393 | 27 ft | 11 kts | 257° |
| 2026-05-08 21:51 | 18.33622 | -64.97498 | 25 ft | 16 kts | 264° |
| 2026-05-08 21:51 | 18.33611 | -64.97615 | 23 ft | 15 kts | 264° |
| 2026-05-08 21:51 | 18.33603 | -64.97720 | 22 ft | 13 kts | 268° |
| 2026-05-08 21:52 | 18.33600 | -64.97817 | 21 ft | 12 kts | 268° |
| 2026-05-08 21:52 | 18.33595 | -64.97924 | 21 ft | 16 kts | 267° |
| 2026-05-08 21:52 | 18.33591 | -64.98036 | 21 ft | 14 kts | 268° |
| 2026-05-08 21:52 | 18.33587 | -64.98137 | 21 ft | 12 kts | 268° |
| 2026-05-08 21:53 | 18.33582 | -64.98222 | 21 ft | 10 kts | 266° |
| 2026-05-08 21:53 | 18.33582 | -64.98288 | 21 ft | 6 kts | 288° |
| 2026-05-08 21:53 | 18.33596 | -64.98319 | 21 ft | 2 kts | 330° |
| 2026-05-08 21:53 | 18.33620 | -64.98327 | 21 ft | 3 kts | 353° |
| 2026-05-08 21:54 | 18.33656 | -64.98329 | 21 ft | 6 kts | 356° |
| 2026-05-08 21:54 | 18.33682 | -64.98323 | 21 ft | 1 kts | 49° |
| 2026-05-08 21:54 | 18.33687 | -64.98305 | 21 ft | 2 kts | 88° |
| 2026-05-08 21:55 | 18.33687 | -64.98293 | 22 ft | 7 kts | 88° |
| 2026-05-08 21:55 | 18.33702 | -64.97997 | 22 ft | 76 kts | 88° |
| 2026-05-08 21:55 | 18.33735 | -64.97214 | 30 ft | 135 kts | 87° |
| 2026-05-08 21:56 | 18.33809 | -64.94875 | 984 ft | 161 kts | 95° |
| 2026-05-08 21:56 | 18.33442 | -64.93761 | 1529 ft | 167 kts | 126° |
| 2026-05-08 21:56 | 18.32576 | -64.93006 | 2192 ft | 164 kts | 146° |
| 2026-05-08 21:56 | 18.31433 | -64.92620 | 2551 ft | 185 kts | 172° |
| 2026-05-08 21:57 | 18.30127 | -64.92787 | 3011 ft | 196 kts | 195° |
| 2026-05-08 21:57 | 18.28935 | -64.93610 | 3316 ft | 218 kts | 230° |
| 2026-05-08 21:57 | 18.28085 | -64.94992 | 3668 ft | 235 kts | 239° |
| 2026-05-08 21:57 | 18.27225 | -64.96500 | 4129 ft | 248 kts | 237° |
| 2026-05-08 21:58 | 18.26285 | -64.98103 | 4523 ft | 266 kts | 241° |
| 2026-05-08 21:58 | 18.25621 | -64.99957 | 4973 ft | 281 kts | 263° |
| 2026-05-08 21:58 | 18.25695 | -65.02029 | 5554 ft | 287 kts | 281° |
| 2026-05-08 21:58 | 18.26090 | -65.04121 | 5915 ft | 298 kts | 284° |
| 2026-05-08 21:59 | 18.26522 | -65.06311 | 5991 ft | 310 kts | 283° |
| 2026-05-08 21:59 | 18.26917 | -65.08552 | 6000 ft | 314 kts | 281° |
| 2026-05-08 21:59 | 18.27273 | -65.10803 | 5990 ft | 310 kts | 281° |
| 2026-05-08 21:59 | 18.27604 | -65.13027 | 6002 ft | 300 kts | 280° |
| 2026-05-08 22:00 | 18.27916 | -65.15144 | 6008 ft | 288 kts | 280° |
| 2026-05-08 22:00 | 18.28222 | -65.17201 | 5998 ft | 281 kts | 280° |
| 2026-05-08 22:00 | 18.28534 | -65.19278 | 6162 ft | 297 kts | 280° |
| 2026-05-08 22:00 | 18.28852 | -65.21391 | 7134 ft | 290 kts | 281° |
| 2026-05-08 22:01 | 18.29166 | -65.23470 | 7818 ft | 294 kts | 281° |
| 2026-05-08 22:01 | 18.29544 | -65.25583 | 8574 ft | 296 kts | 284° |
| 2026-05-08 22:01 | 18.29986 | -65.27689 | 9335 ft | 299 kts | 285° |
| 2026-05-08 22:01 | 18.30453 | -65.29836 | 10109 ft | 301 kts | 285° |
| 2026-05-08 22:02 | 18.30921 | -65.32004 | 10620 ft | 314 kts | 285° |
| 2026-05-08 22:02 | 18.31406 | -65.34298 | 11061 ft | 329 kts | 284° |
| 2026-05-08 22:02 | 18.31905 | -65.36694 | 11448 ft | 345 kts | 284° |
| 2026-05-08 22:02 | 18.32424 | -65.39206 | 11841 ft | 360 kts | 284° |
| 2026-05-08 22:03 | 18.32967 | -65.41843 | 12196 ft | 375 kts | 284° |
| 2026-05-08 22:03 | 18.33521 | -65.44537 | 12830 ft | 380 kts | 284° |
| 2026-05-08 22:03 | 18.34077 | -65.47250 | 13524 ft | 383 kts | 284° |
| 2026-05-08 22:03 | 18.34641 | -65.49998 | 14191 ft | 387 kts | 284° |
| 2026-05-08 22:04 | 18.35211 | -65.52776 | 14862 ft | 391 kts | 283° |
| 2026-05-08 22:04 | 18.35782 | -65.55557 | 15526 ft | 395 kts | 283° |
| 2026-05-08 22:04 | 18.36363 | -65.58390 | 16178 ft | 398 kts | 283° |
| 2026-05-08 22:04 | 18.36952 | -65.61259 | 16800 ft | 402 kts | 283° |
| 2026-05-08 22:05 | 18.37536 | -65.64111 | 17383 ft | 405 kts | 283° |
| 2026-05-08 22:05 | 18.38130 | -65.67011 | 17948 ft | 410 kts | 283° |
| 2026-05-08 22:05 | 18.38733 | -65.69956 | 18510 ft | 414 kts | 283° |
| 2026-05-08 22:05 | 18.39339 | -65.72917 | 19087 ft | 418 kts | 283° |
| 2026-05-08 22:06 | 18.39956 | -65.75938 | 19644 ft | 422 kts | 283° |
| 2026-05-08 22:06 | 18.40575 | -65.78971 | 20160 ft | 426 kts | 283° |
| 2026-05-08 22:06 | 18.41196 | -65.82012 | 20713 ft | 429 kts | 282° |
| 2026-05-08 22:06 | 18.41822 | -65.85086 | 21243 ft | 433 kts | 282° |
| 2026-05-08 22:07 | 18.42461 | -65.88222 | 21759 ft | 437 kts | 282° |
| 2026-05-08 22:07 | 18.43099 | -65.91355 | 22259 ft | 441 kts | 282° |
| 2026-05-08 22:07 | 18.43831 | -65.94506 | 22812 ft | 444 kts | 287° |
| 2026-05-08 22:07 | 18.44855 | -65.97547 | 23385 ft | 444 kts | 295° |
| 2026-05-08 22:08 | 18.46346 | -66.00408 | 23958 ft | 445 kts | 305° |
| 2026-05-08 22:08 | 18.48220 | -66.02937 | 24516 ft | 445 kts | 313° |
| 2026-05-08 22:08 | 18.50367 | -66.05293 | 25067 ft | 446 kts | 316° |
| 2026-05-08 22:08 | 18.52636 | -66.07558 | 25600 ft | 447 kts | 318° |
| 2026-05-08 22:09 | 18.54924 | -66.09765 | 26145 ft | 448 kts | 319° |
| 2026-05-08 22:09 | 18.57246 | -66.11995 | 26647 ft | 451 kts | 319° |
| 2026-05-08 22:09 | 18.59543 | -66.14219 | 27146 ft | 453 kts | 319° |
| 2026-05-08 22:09 | 18.61870 | -66.16495 | 27639 ft | 455 kts | 319° |
| 2026-05-08 22:10 | 18.64188 | -66.18784 | 28117 ft | 457 kts | 318° |
| 2026-05-08 22:10 | 18.66511 | -66.21100 | 28589 ft | 459 kts | 318° |
| 2026-05-08 22:10 | 18.68816 | -66.23412 | 29211 ft | 457 kts | 318° |
| 2026-05-08 22:10 | 18.71073 | -66.25687 | 29913 ft | 453 kts | 318° |
| 2026-05-08 22:11 | 18.73333 | -66.27974 | 30547 ft | 450 kts | 318° |
| 2026-05-08 22:11 | 18.75591 | -66.30261 | 31055 ft | 449 kts | 318° |
| 2026-05-08 22:11 | 18.77840 | -66.32543 | 31597 ft | 447 kts | 318° |
| 2026-05-08 22:11 | 18.80081 | -66.34820 | 32156 ft | 445 kts | 318° |
| 2026-05-08 22:12 | 18.82297 | -66.37072 | 32662 ft | 443 kts | 318° |
| 2026-05-08 22:12 | 18.84507 | -66.39321 | 33216 ft | 441 kts | 318° |
| 2026-05-08 22:12 | 18.86734 | -66.41588 | 33815 ft | 438 kts | 318° |
| 2026-05-08 22:12 | 18.88911 | -66.43803 | 34354 ft | 436 kts | 318° |
| 2026-05-08 22:13 | 18.91092 | -66.46023 | 34880 ft | 434 kts | 318° |
| 2026-05-08 22:13 | 18.93218 | -66.48243 | 35341 ft | 433 kts | 316° |
| 2026-05-08 22:13 | 18.95261 | -66.50603 | 35779 ft | 433 kts | 314° |
| 2026-05-08 22:13 | 18.97201 | -66.53011 | 36230 ft | 432 kts | 313° |
| 2026-05-08 22:14 | 18.99117 | -66.55460 | 36639 ft | 431 kts | 312° |
| 2026-05-08 22:14 | 19.01027 | -66.57923 | 36980 ft | 432 kts | 312° |
| 2026-05-08 22:14 | 19.02921 | -66.60360 | 37395 ft | 430 kts | 313° |
| 2026-05-08 22:14 | 19.04810 | -66.62772 | 37738 ft | 429 kts | 313° |
| 2026-05-08 22:15 | 19.06716 | -66.65193 | 37994 ft | 429 kts | 313° |
| 2026-05-08 22:15 | 19.10640 | -66.70147 | 37991 ft | 431 kts | 313° |
| 2026-05-08 22:16 | 19.14507 | -66.75021 | 37994 ft | 428 kts | 313° |
| 2026-05-08 22:16 | 19.18346 | -66.79857 | 37992 ft | 429 kts | 313° |
| 2026-05-08 22:17 | 19.22182 | -66.84690 | 37991 ft | 429 kts | 313° |
| 2026-05-08 22:17 | 19.26014 | -66.89520 | 37989 ft | 429 kts | 313° |
| 2026-05-08 22:18 | 19.29866 | -66.94382 | 37989 ft | 428 kts | 313° |
| 2026-05-08 22:18 | 19.33703 | -66.99232 | 37989 ft | 429 kts | 313° |
| 2026-05-08 22:19 | 19.37520 | -67.04059 | 37987 ft | 429 kts | 313° |
| 2026-05-08 22:19 | 19.41344 | -67.08891 | 37989 ft | 430 kts | 312° |
| 2026-05-08 22:20 | 19.45201 | -67.13769 | 37993 ft | 430 kts | 312° |
| 2026-05-08 22:20 | 19.49023 | -67.18612 | 37994 ft | 430 kts | 312° |
| 2026-05-08 22:21 | 19.52879 | -67.23503 | 37995 ft | 431 kts | 313° |
| 2026-05-08 22:21 | 19.56710 | -67.28367 | 37997 ft | 430 kts | 312° |
| 2026-05-08 22:22 | 19.60539 | -67.33233 | 38004 ft | 430 kts | 312° |
| 2026-05-08 22:22 | 19.64364 | -67.38091 | 38007 ft | 430 kts | 312° |
| 2026-05-08 22:23 | 19.68196 | -67.42963 | 38002 ft | 430 kts | 312° |
| 2026-05-08 22:23 | 19.72037 | -67.47853 | 38002 ft | 431 kts | 312° |
| 2026-05-08 22:24 | 19.75858 | -67.52724 | 38003 ft | 431 kts | 312° |
| 2026-05-08 22:24 | 19.79707 | -67.57636 | 38003 ft | 431 kts | 312° |
| 2026-05-08 22:25 | 19.83529 | -67.62515 | 38003 ft | 431 kts | 312° |
| 2026-05-08 22:25 | 19.87372 | -67.67424 | 38004 ft | 431 kts | 312° |
| 2026-05-08 22:26 | 19.91212 | -67.72334 | 38004 ft | 432 kts | 312° |
| 2026-05-08 22:26 | 19.95049 | -67.77245 | 38006 ft | 432 kts | 311° |
| 2026-05-08 22:27 | 19.98901 | -67.82180 | 38006 ft | 431 kts | 311° |
| 2026-05-08 22:27 | 20.02738 | -67.87099 | 38008 ft | 431 kts | 312° |
| 2026-05-08 22:28 | 20.06547 | -67.91988 | 38008 ft | 432 kts | 312° |
| 2026-05-08 22:28 | 20.10396 | -67.96928 | 38005 ft | 432 kts | 311° |
| 2026-05-08 22:29 | 20.14259 | -68.01887 | 38011 ft | 433 kts | 311° |
| 2026-05-08 22:29 | 20.18104 | -68.06831 | 38009 ft | 433 kts | 311° |
| 2026-05-08 22:30 | 20.21923 | -68.11748 | 38010 ft | 432 kts | 312° |
| 2026-05-08 22:30 | 20.25767 | -68.16703 | 38010 ft | 431 kts | 311° |
| 2026-05-08 22:31 | 20.29586 | -68.21629 | 38012 ft | 431 kts | 311° |
| 2026-05-08 22:31 | 20.33396 | -68.26545 | 38013 ft | 431 kts | 311° |
| 2026-05-08 22:32 | 20.37205 | -68.31464 | 38011 ft | 433 kts | 311° |
| 2026-05-08 22:32 | 20.41048 | -68.36430 | 38013 ft | 432 kts | 311° |
| 2026-05-08 22:33 | 20.44689 | -68.41499 | 38013 ft | 434 kts | 306° |
| 2026-05-08 22:33 | 20.47842 | -68.46989 | 38013 ft | 435 kts | 302° |
| 2026-05-08 22:34 | 20.50864 | -68.52602 | 38011 ft | 435 kts | 302° |
| 2026-05-08 22:34 | 20.53880 | -68.58192 | 38013 ft | 435 kts | 302° |
| 2026-05-08 22:35 | 20.56917 | -68.63763 | 38012 ft | 434 kts | 302° |
| 2026-05-08 22:35 | 20.59989 | -68.69369 | 38008 ft | 435 kts | 302° |
| 2026-05-08 22:36 | 20.63060 | -68.74963 | 38012 ft | 435 kts | 302° |
| 2026-05-08 22:36 | 20.66107 | -68.80520 | 38009 ft | 435 kts | 302° |
| 2026-05-08 22:37 | 20.69166 | -68.86100 | 38010 ft | 435 kts | 302° |
| 2026-05-08 22:37 | 20.72216 | -68.91663 | 38010 ft | 435 kts | 302° |
| 2026-05-08 22:38 | 20.75301 | -68.97295 | 38008 ft | 436 kts | 302° |
| 2026-05-08 22:38 | 20.78349 | -69.02872 | 38006 ft | 435 kts | 302° |
| 2026-05-08 22:39 | 20.81382 | -69.08430 | 38007 ft | 434 kts | 302° |
| 2026-05-08 22:39 | 20.84424 | -69.14006 | 38007 ft | 434 kts | 302° |
| 2026-05-08 22:40 | 20.87463 | -69.19587 | 38006 ft | 436 kts | 302° |
| 2026-05-08 22:40 | 20.90512 | -69.25186 | 38007 ft | 436 kts | 302° |
| 2026-05-08 22:41 | 20.93549 | -69.30769 | 38008 ft | 436 kts | 302° |
| 2026-05-08 22:41 | 20.96598 | -69.36379 | 38007 ft | 437 kts | 302° |
| 2026-05-08 22:42 | 20.99653 | -69.42005 | 38010 ft | 435 kts | 302° |
| 2026-05-08 22:42 | 21.02673 | -69.47576 | 38009 ft | 436 kts | 302° |
| 2026-05-08 22:43 | 21.05714 | -69.53189 | 38010 ft | 435 kts | 302° |
| 2026-05-08 22:43 | 21.08739 | -69.58777 | 38011 ft | 436 kts | 302° |
| 2026-05-08 22:44 | 21.11791 | -69.64422 | 38012 ft | 437 kts | 302° |
| 2026-05-08 22:44 | 21.14835 | -69.70058 | 38013 ft | 437 kts | 302° |
| 2026-05-08 22:45 | 21.17880 | -69.75703 | 38016 ft | 436 kts | 302° |
| 2026-05-08 22:45 | 21.20911 | -69.81330 | 38015 ft | 435 kts | 302° |
| 2026-05-08 22:46 | 21.23929 | -69.86935 | 38015 ft | 435 kts | 301° |
| 2026-05-08 22:46 | 21.26957 | -69.92564 | 38015 ft | 435 kts | 301° |
| 2026-05-08 22:47 | 21.29960 | -69.98152 | 38013 ft | 436 kts | 301° |
| 2026-05-08 22:47 | 21.32986 | -70.03787 | 38015 ft | 436 kts | 301° |
| 2026-05-08 22:48 | 21.35994 | -70.09399 | 38013 ft | 436 kts | 301° |
| 2026-05-08 22:48 | 21.39019 | -70.15042 | 38014 ft | 436 kts | 301° |
| 2026-05-08 22:49 | 21.42021 | -70.20653 | 38016 ft | 435 kts | 301° |
| 2026-05-08 22:49 | 21.46537 | -70.29102 | 38018 ft | 435 kts | 301° |
| 2026-05-08 22:50 | 21.49549 | -70.34740 | 38018 ft | 435 kts | 301° |
| 2026-05-08 22:50 | 21.52537 | -70.40346 | 38022 ft | 435 kts | 301° |
| 2026-05-08 22:51 | 21.55540 | -70.45987 | 38025 ft | 435 kts | 301° |
| 2026-05-08 22:51 | 21.58538 | -70.51622 | 38021 ft | 436 kts | 301° |
| 2026-05-08 22:52 | 21.61524 | -70.57240 | 38023 ft | 434 kts | 301° |
| 2026-05-08 22:52 | 21.64522 | -70.62885 | 38024 ft | 434 kts | 301° |
| 2026-05-08 22:53 | 21.67516 | -70.68532 | 38022 ft | 435 kts | 301° |
| 2026-05-08 22:53 | 21.70500 | -70.74162 | 38023 ft | 434 kts | 301° |
| 2026-05-08 22:54 | 21.73503 | -70.79838 | 38022 ft | 435 kts | 301° |
| 2026-05-08 22:54 | 21.76510 | -70.85525 | 38023 ft | 435 kts | 301° |
| 2026-05-08 22:55 | 21.79512 | -70.91206 | 38023 ft | 435 kts | 301° |
| 2026-05-08 22:55 | 21.82483 | -70.96836 | 38025 ft | 434 kts | 301° |
| 2026-05-08 22:56 | 21.85472 | -71.02507 | 38023 ft | 434 kts | 301° |
| 2026-05-08 22:56 | 21.88427 | -71.08118 | 38021 ft | 435 kts | 301° |
| 2026-05-08 22:57 | 21.91416 | -71.13800 | 38025 ft | 434 kts | 301° |
| 2026-05-08 22:57 | 21.94382 | -71.19448 | 38027 ft | 435 kts | 301° |
| 2026-05-08 22:58 | 21.97362 | -71.25127 | 38028 ft | 435 kts | 301° |
| 2026-05-08 22:58 | 22.00348 | -71.30821 | 38028 ft | 435 kts | 301° |
| 2026-05-08 22:59 | 22.03312 | -71.36479 | 38031 ft | 435 kts | 301° |
| 2026-05-08 22:59 | 22.06272 | -71.42137 | 38027 ft | 434 kts | 301° |
| 2026-05-08 23:00 | 22.09234 | -71.47809 | 38031 ft | 433 kts | 301° |
| 2026-05-08 23:00 | 22.12186 | -71.53464 | 38028 ft | 434 kts | 301° |
| 2026-05-08 23:01 | 22.15138 | -71.59126 | 38027 ft | 434 kts | 301° |
| 2026-05-08 23:01 | 22.18098 | -71.64809 | 38030 ft | 434 kts | 301° |
| 2026-05-08 23:02 | 22.21061 | -71.70501 | 38031 ft | 435 kts | 301° |
| 2026-05-08 23:02 | 22.24024 | -71.76202 | 38030 ft | 434 kts | 301° |
| 2026-05-08 23:03 | 22.26980 | -71.81893 | 38029 ft | 435 kts | 301° |
| 2026-05-08 23:03 | 22.29925 | -71.87573 | 38030 ft | 434 kts | 301° |
| 2026-05-08 23:04 | 22.32862 | -71.93242 | 38029 ft | 434 kts | 300° |
| 2026-05-08 23:04 | 22.35807 | -71.98934 | 38031 ft | 434 kts | 300° |
| 2026-05-08 23:05 | 22.38728 | -72.04584 | 38028 ft | 433 kts | 300° |
| 2026-05-08 23:05 | 22.41675 | -72.10291 | 38028 ft | 434 kts | 300° |
| 2026-05-08 23:06 | 22.44599 | -72.15958 | 38028 ft | 434 kts | 300° |
| 2026-05-08 23:06 | 22.47535 | -72.21656 | 38026 ft | 435 kts | 300° |
| 2026-05-08 23:07 | 22.50472 | -72.27362 | 38028 ft | 435 kts | 300° |
| 2026-05-08 23:07 | 22.53395 | -72.33048 | 38026 ft | 434 kts | 300° |
| 2026-05-08 23:08 | 22.56333 | -72.38769 | 38027 ft | 434 kts | 300° |
| 2026-05-08 23:08 | 22.59254 | -72.44465 | 38026 ft | 434 kts | 300° |
| 2026-05-08 23:09 | 22.62165 | -72.50145 | 38026 ft | 434 kts | 300° |
| 2026-05-08 23:09 | 22.65099 | -72.55877 | 38023 ft | 434 kts | 300° |
| 2026-05-08 23:10 | 22.68004 | -72.61563 | 38025 ft | 434 kts | 300° |
| 2026-05-08 23:10 | 22.70949 | -72.67329 | 38025 ft | 434 kts | 300° |
| 2026-05-08 23:11 | 22.73861 | -72.73033 | 38025 ft | 435 kts | 300° |
| 2026-05-08 23:11 | 22.76794 | -72.78790 | 38025 ft | 435 kts | 300° |
| 2026-05-08 23:12 | 22.79703 | -72.84518 | 38026 ft | 435 kts | 300° |
| 2026-05-08 23:12 | 22.82616 | -72.90264 | 38025 ft | 435 kts | 300° |
| 2026-05-08 23:13 | 22.85513 | -72.95982 | 38026 ft | 436 kts | 300° |
| 2026-05-08 23:13 | 22.88438 | -73.01762 | 38026 ft | 435 kts | 300° |
| 2026-05-08 23:14 | 22.91332 | -73.07486 | 38024 ft | 435 kts | 300° |
| 2026-05-08 23:14 | 22.94242 | -73.13249 | 38024 ft | 435 kts | 300° |
| 2026-05-08 23:15 | 22.97135 | -73.18986 | 38025 ft | 435 kts | 300° |
| 2026-05-08 23:15 | 23.00039 | -73.24753 | 38023 ft | 435 kts | 300° |
| 2026-05-08 23:16 | 23.02939 | -73.30514 | 38024 ft | 436 kts | 300° |
| 2026-05-08 23:16 | 23.05827 | -73.36262 | 38023 ft | 435 kts | 300° |
| 2026-05-08 23:17 | 23.08727 | -73.42040 | 38021 ft | 435 kts | 300° |
| 2026-05-08 23:17 | 23.11609 | -73.47789 | 38022 ft | 435 kts | 300° |
| 2026-05-08 23:18 | 23.14497 | -73.53554 | 38023 ft | 435 kts | 300° |
| 2026-05-08 23:18 | 23.17372 | -73.59300 | 38024 ft | 434 kts | 300° |
| 2026-05-08 23:19 | 23.20259 | -73.65076 | 38021 ft | 434 kts | 299° |
| 2026-05-08 23:19 | 23.23127 | -73.70822 | 38020 ft | 435 kts | 299° |
| 2026-05-08 23:20 | 23.26015 | -73.76613 | 38022 ft | 435 kts | 299° |
| 2026-05-08 23:20 | 23.28886 | -73.82377 | 38018 ft | 434 kts | 299° |
| 2026-05-08 23:21 | 23.31768 | -73.88174 | 38023 ft | 434 kts | 299° |
| 2026-05-08 23:21 | 23.34634 | -73.93941 | 38026 ft | 434 kts | 299° |
| 2026-05-08 23:22 | 23.37496 | -73.99703 | 38027 ft | 435 kts | 299° |
| 2026-05-08 23:22 | 23.40358 | -74.05479 | 38021 ft | 434 kts | 299° |
| 2026-05-08 23:23 | 23.43226 | -74.11271 | 38028 ft | 434 kts | 299° |
| 2026-05-08 23:23 | 23.46082 | -74.17048 | 38031 ft | 434 kts | 299° |
| 2026-05-08 23:24 | 23.48934 | -74.22821 | 38032 ft | 434 kts | 299° |
| 2026-05-08 23:24 | 23.51783 | -74.28597 | 38029 ft | 434 kts | 299° |
| 2026-05-08 23:25 | 23.54643 | -74.34403 | 38025 ft | 434 kts | 299° |
| 2026-05-08 23:25 | 23.57492 | -74.40192 | 38025 ft | 434 kts | 299° |
| 2026-05-08 23:26 | 23.60350 | -74.46004 | 38025 ft | 434 kts | 299° |
| 2026-05-08 23:26 | 23.63189 | -74.51783 | 38027 ft | 434 kts | 299° |
| 2026-05-08 23:27 | 23.66025 | -74.57566 | 38028 ft | 435 kts | 299° |
| 2026-05-08 23:27 | 23.68896 | -74.63427 | 38028 ft | 434 kts | 299° |
| 2026-05-08 23:28 | 23.71734 | -74.69227 | 38029 ft | 433 kts | 298° |
| 2026-05-08 23:28 | 23.74584 | -74.75061 | 38028 ft | 433 kts | 298° |
| 2026-05-08 23:29 | 23.77452 | -74.80936 | 38029 ft | 433 kts | 298° |
| 2026-05-08 23:29 | 23.80274 | -74.86722 | 38028 ft | 433 kts | 298° |
| 2026-05-08 23:30 | 23.83108 | -74.92539 | 38029 ft | 434 kts | 298° |
| 2026-05-08 23:30 | 23.85934 | -74.98350 | 38028 ft | 432 kts | 298° |
| 2026-05-08 23:31 | 23.88749 | -75.04146 | 38027 ft | 432 kts | 298° |
| 2026-05-08 23:31 | 23.91562 | -75.09944 | 38028 ft | 433 kts | 298° |
| 2026-05-08 23:32 | 23.94374 | -75.15747 | 38028 ft | 432 kts | 298° |
| 2026-05-08 23:32 | 23.97194 | -75.21575 | 38031 ft | 433 kts | 298° |
| 2026-05-08 23:33 | 24.00001 | -75.27383 | 38029 ft | 433 kts | 298° |
| 2026-05-08 23:33 | 24.02800 | -75.33179 | 38029 ft | 432 kts | 298° |
| 2026-05-08 23:34 | 24.05618 | -75.39023 | 38028 ft | 432 kts | 298° |
| 2026-05-08 23:34 | 24.08399 | -75.44797 | 38029 ft | 431 kts | 298° |
| 2026-05-08 23:35 | 24.11207 | -75.50633 | 38028 ft | 431 kts | 298° |
| 2026-05-08 23:35 | 24.13973 | -75.56390 | 38028 ft | 431 kts | 297° |
| 2026-05-08 23:36 | 24.16775 | -75.62227 | 38028 ft | 430 kts | 297° |
| 2026-05-08 23:36 | 24.19558 | -75.68034 | 38028 ft | 431 kts | 297° |
| 2026-05-08 23:37 | 24.22335 | -75.73835 | 38028 ft | 430 kts | 297° |
| 2026-05-08 23:37 | 24.25116 | -75.79649 | 38028 ft | 430 kts | 297° |
| 2026-05-08 23:38 | 24.27878 | -75.85432 | 38028 ft | 430 kts | 297° |
| 2026-05-08 23:38 | 24.30651 | -75.91244 | 38028 ft | 430 kts | 297° |
| 2026-05-08 23:39 | 24.33416 | -75.97051 | 38025 ft | 429 kts | 297° |
| 2026-05-08 23:39 | 24.36160 | -76.02820 | 38017 ft | 428 kts | 297° |
| 2026-05-08 23:40 | 24.38902 | -76.08590 | 38015 ft | 428 kts | 297° |
| 2026-05-08 23:40 | 24.41647 | -76.14370 | 38014 ft | 428 kts | 297° |
| 2026-05-08 23:41 | 24.44396 | -76.20168 | 38014 ft | 427 kts | 297° |
| 2026-05-08 23:41 | 24.47122 | -76.25926 | 38014 ft | 429 kts | 297° |
| 2026-05-08 23:42 | 24.49867 | -76.31735 | 38014 ft | 428 kts | 297° |
| 2026-05-08 23:42 | 24.52607 | -76.37533 | 38010 ft | 427 kts | 297° |
| 2026-05-08 23:43 | 24.55328 | -76.43299 | 38007 ft | 427 kts | 297° |
| 2026-05-08 23:43 | 24.58055 | -76.49087 | 38008 ft | 427 kts | 297° |
| 2026-05-08 23:44 | 24.60768 | -76.54854 | 38007 ft | 425 kts | 296° |
| 2026-05-08 23:44 | 24.63471 | -76.60605 | 38008 ft | 426 kts | 296° |
| 2026-05-08 23:45 | 24.66183 | -76.66385 | 38008 ft | 424 kts | 296° |
| 2026-05-08 23:45 | 24.68896 | -76.72174 | 38006 ft | 425 kts | 296° |
| 2026-05-08 23:46 | 24.71596 | -76.77939 | 38011 ft | 424 kts | 296° |
| 2026-05-08 23:46 | 24.74294 | -76.83708 | 38010 ft | 424 kts | 296° |
| 2026-05-08 23:47 | 24.76988 | -76.89476 | 38008 ft | 423 kts | 296° |
| 2026-05-08 23:47 | 24.79675 | -76.95239 | 38008 ft | 423 kts | 296° |
| 2026-05-08 23:48 | 24.82356 | -77.00995 | 38007 ft | 422 kts | 296° |
| 2026-05-08 23:48 | 24.85014 | -77.06705 | 38007 ft | 421 kts | 296° |
| 2026-05-08 23:49 | 24.87694 | -77.12471 | 38006 ft | 420 kts | 296° |
| 2026-05-08 23:49 | 24.90345 | -77.18187 | 38005 ft | 420 kts | 296° |
| 2026-05-08 23:50 | 24.93005 | -77.23926 | 38006 ft | 421 kts | 296° |
| 2026-05-08 23:50 | 24.95661 | -77.29662 | 38006 ft | 420 kts | 296° |
| 2026-05-08 23:51 | 24.98328 | -77.35428 | 38004 ft | 421 kts | 296° |
| 2026-05-08 23:51 | 25.00972 | -77.41151 | 37999 ft | 420 kts | 296° |
| 2026-05-08 23:52 | 25.03605 | -77.46918 | 37998 ft | 418 kts | 295° |
| 2026-05-08 23:52 | 25.06062 | -77.52732 | 37999 ft | 420 kts | 294° |
| 2026-05-08 23:53 | 25.08480 | -77.58591 | 37996 ft | 417 kts | 294° |
| 2026-05-08 23:53 | 25.10891 | -77.64391 | 37995 ft | 416 kts | 294° |
| 2026-05-08 23:54 | 25.13295 | -77.70145 | 37993 ft | 415 kts | 294° |
| 2026-05-08 23:55 | 25.16915 | -77.78805 | 37989 ft | 413 kts | 294° |
| 2026-05-08 23:55 | 25.19321 | -77.84566 | 37987 ft | 415 kts | 294° |
| 2026-05-08 23:56 | 25.21738 | -77.90359 | 37987 ft | 414 kts | 294° |
| 2026-05-08 23:56 | 25.24149 | -77.96148 | 37987 ft | 414 kts | 294° |
| 2026-05-08 23:57 | 25.26532 | -78.01876 | 37987 ft | 413 kts | 294° |
| 2026-05-08 23:57 | 25.28922 | -78.07629 | 37987 ft | 411 kts | 294° |
| 2026-05-08 23:58 | 25.31302 | -78.13360 | 37987 ft | 411 kts | 294° |
| 2026-05-08 23:58 | 25.33672 | -78.19082 | 37987 ft | 409 kts | 294° |
| 2026-05-08 23:59 | 25.36044 | -78.24809 | 37987 ft | 410 kts | 294° |
| 2026-05-08 23:59 | 25.38418 | -78.30550 | 37987 ft | 411 kts | 294° |
| 2026-05-09 00:00 | 25.40775 | -78.36259 | 37987 ft | 408 kts | 294° |
| 2026-05-09 00:00 | 25.43134 | -78.41981 | 37994 ft | 410 kts | 294° |
| 2026-05-09 00:01 | 25.45485 | -78.47681 | 37998 ft | 409 kts | 294° |
| 2026-05-09 00:01 | 25.47836 | -78.53406 | 37995 ft | 409 kts | 294° |
| 2026-05-09 00:02 | 25.50180 | -78.59124 | 37993 ft | 408 kts | 294° |
| 2026-05-09 00:02 | 25.52525 | -78.64846 | 37994 ft | 408 kts | 294° |
| 2026-05-09 00:03 | 25.54872 | -78.70574 | 37995 ft | 406 kts | 293° |
| 2026-05-09 00:03 | 25.57199 | -78.76263 | 37993 ft | 406 kts | 293° |
| 2026-05-09 00:04 | 25.59527 | -78.81962 | 37993 ft | 405 kts | 293° |
| 2026-05-09 00:04 | 25.61852 | -78.87667 | 37988 ft | 406 kts | 293° |
| 2026-05-09 00:05 | 25.64184 | -78.93397 | 37988 ft | 405 kts | 293° |
| 2026-05-09 00:05 | 25.66478 | -78.99049 | 37989 ft | 404 kts | 293° |
| 2026-05-09 00:06 | 25.68785 | -79.04725 | 37987 ft | 405 kts | 293° |
| 2026-05-09 00:06 | 25.71097 | -79.10414 | 37987 ft | 405 kts | 293° |
| 2026-05-09 00:07 | 25.73398 | -79.16101 | 37988 ft | 404 kts | 293° |
| 2026-05-09 00:07 | 25.75684 | -79.21750 | 37986 ft | 406 kts | 293° |
| 2026-05-09 00:08 | 25.77998 | -79.27481 | 37983 ft | 404 kts | 293° |
| 2026-05-09 00:08 | 25.80295 | -79.33173 | 37981 ft | 406 kts | 293° |
| 2026-05-09 00:09 | 25.82584 | -79.38854 | 37980 ft | 405 kts | 293° |
| 2026-05-09 00:09 | 25.84886 | -79.44570 | 37979 ft | 405 kts | 293° |
| 2026-05-09 00:10 | 25.87186 | -79.50290 | 37979 ft | 405 kts | 293° |
| 2026-05-09 00:10 | 25.89479 | -79.56004 | 37978 ft | 406 kts | 293° |
| 2026-05-09 00:11 | 25.91776 | -79.61730 | 37975 ft | 407 kts | 293° |
| 2026-05-09 00:11 | 25.94065 | -79.67439 | 37974 ft | 405 kts | 293° |
| 2026-05-09 00:12 | 25.96370 | -79.73183 | 37973 ft | 405 kts | 293° |
| 2026-05-09 00:12 | 25.98645 | -79.78887 | 37979 ft | 405 kts | 292° |
| 2026-05-09 00:13 | 26.00897 | -79.84550 | 37746 ft | 396 kts | 293° |
| 2026-05-09 00:13 | 26.02005 | -79.87335 | 37443 ft | 389 kts | 293° |
| 2026-05-09 00:13 | 26.03087 | -79.90054 | 37014 ft | 387 kts | 292° |
| 2026-05-09 00:13 | 26.04171 | -79.92786 | 36469 ft | 387 kts | 292° |
| 2026-05-09 00:14 | 26.05260 | -79.95534 | 35884 ft | 385 kts | 293° |
| 2026-05-09 00:14 | 26.06333 | -79.98238 | 35240 ft | 386 kts | 293° |
| 2026-05-09 00:14 | 26.07411 | -80.00958 | 34596 ft | 386 kts | 292° |
| 2026-05-09 00:14 | 26.08487 | -80.03674 | 33935 ft | 385 kts | 292° |
| 2026-05-09 00:15 | 26.09567 | -80.06399 | 33258 ft | 385 kts | 292° |
| 2026-05-09 00:15 | 26.10653 | -80.09135 | 32579 ft | 386 kts | 292° |
| 2026-05-09 00:15 | 26.11726 | -80.11839 | 31913 ft | 387 kts | 293° |
| 2026-05-09 00:15 | 26.12880 | -80.14535 | 31180 ft | 390 kts | 296° |
| 2026-05-09 00:16 | 26.14310 | -80.17106 | 30435 ft | 395 kts | 304° |
| 2026-05-09 00:16 | 26.16133 | -80.19355 | 30068 ft | 393 kts | 313° |
| 2026-05-09 00:16 | 26.18216 | -80.21305 | 29991 ft | 387 kts | 318° |
| 2026-05-09 00:17 | 26.22769 | -80.24532 | 29982 ft | 391 kts | 327° |
| 2026-05-09 00:17 | 26.25237 | -80.25866 | 29985 ft | 402 kts | 330° |
| 2026-05-09 00:17 | 26.27833 | -80.27183 | 29985 ft | 414 kts | 330° |
| 2026-05-09 00:17 | 26.30484 | -80.28510 | 29985 ft | 425 kts | 330° |
| 2026-05-09 00:18 | 26.33208 | -80.29879 | 29984 ft | 436 kts | 330° |
| 2026-05-09 00:18 | 26.38777 | -80.32711 | 29981 ft | 440 kts | 330° |
| 2026-05-09 00:19 | 26.44275 | -80.35537 | 29980 ft | 432 kts | 330° |
| 2026-05-09 00:19 | 26.49754 | -80.38385 | 29980 ft | 434 kts | 329° |
| 2026-05-09 00:20 | 26.55206 | -80.41231 | 29979 ft | 432 kts | 329° |
| 2026-05-09 00:20 | 26.60684 | -80.44099 | 29980 ft | 432 kts | 329° |
| 2026-05-09 00:21 | 26.66054 | -80.46711 | 29979 ft | 436 kts | 333° |
| 2026-05-09 00:21 | 26.71782 | -80.49046 | 29979 ft | 437 kts | 335° |
| 2026-05-09 00:22 | 26.77494 | -80.51307 | 29979 ft | 437 kts | 334° |
| 2026-05-09 00:22 | 26.83219 | -80.53616 | 29977 ft | 435 kts | 334° |
| 2026-05-09 00:22 | 26.86051 | -80.54773 | 29805 ft | 430 kts | 334° |
| 2026-05-09 00:23 | 26.88849 | -80.55919 | 29150 ft | 429 kts | 334° |
| 2026-05-09 00:23 | 26.91668 | -80.57080 | 28444 ft | 428 kts | 334° |
| 2026-05-09 00:23 | 26.94456 | -80.58232 | 27885 ft | 424 kts | 334° |
| 2026-05-09 00:23 | 26.97201 | -80.59364 | 27439 ft | 418 kts | 334° |
| 2026-05-09 00:24 | 26.99892 | -80.60477 | 27050 ft | 414 kts | 334° |
| 2026-05-09 00:24 | 27.02607 | -80.61605 | 26637 ft | 415 kts | 334° |
| 2026-05-09 00:24 | 27.05304 | -80.62730 | 26228 ft | 417 kts | 334° |
| 2026-05-09 00:24 | 27.08031 | -80.63868 | 25811 ft | 415 kts | 334° |
| 2026-05-09 00:25 | 27.10731 | -80.64994 | 25396 ft | 411 kts | 334° |
| 2026-05-09 00:25 | 27.13391 | -80.66105 | 24986 ft | 408 kts | 333° |
| 2026-05-09 00:25 | 27.16079 | -80.67230 | 24568 ft | 406 kts | 333° |
| 2026-05-09 00:25 | 27.18705 | -80.68333 | 24163 ft | 404 kts | 333° |